• Join FlightAware (Why Join?)
  • Login
  • US Flag 
02:51PM EDT


 

Airport Tracker/Info


-or-


 

Live Flight TrackerFlight Track Log ✈ JBU480 ✈ 27-Apr-2012 ✈ KLAX - KBOS

Flight Track Log - Related Links

Times and Time Zones

All times are in EDT time to prevent confusion due to time zone crossing. See the JBU480 flight status page for this flight to view local times or setup timezone preferences in your user account.

Time Position Orientation Groundspeed Altitude Reporting Facility
EDT Latitude Longitude Course Direction KTS MPH feet Rate Location/Type
02:49AM 33.9462 -118.3679 256° West  Level FlightAware Approximate
02:50AM 33.9333 -118.5280 157° South  Level FlightAware Approximate
02:51AM 33.9158 -118.5192 185° South 179 206 3,700  Level Los Angeles Center
02:52AM 33.8614 -118.5253 182° South 179 206 5,000 1,200 Climbing Los Angeles Center
02:53AM 33.7864 -118.5281 154° Southeast 202 232 6,200 1,620 Climbing Los Angeles Center
02:54AM 33.7142 -118.4861 111° Southeast 259 298 8,300 2,100 Climbing Los Angeles Center
02:55AM 33.6844 -118.3953 91° East 290 334 10,400 1,440 Climbing Los Angeles Center
02:56AM 33.6825 -118.2831 91° East 300 345 11,200 1,200 Climbing Los Angeles Center
02:57AM 33.6806 -118.1531 91° East 344 396 12,800 1,740 Climbing Los Angeles Center
02:58AM 33.6783 -118.0208 91° East 370 426 14,700 1,680 Climbing Los Angeles Center
02:59AM 33.6764 -117.8833 92° East 394 453 16,200 1,500 Climbing Los Angeles Center
03:00AM 33.6722 -117.7311 91° East 408 470 17,700 1,500 Climbing Los Angeles Center
03:01AM 33.6697 -117.5864 91° East 419 482 19,200 1,380 Climbing Los Angeles Center
03:02AM 33.6672 -117.4392 91° East 430 495 20,500 1,260 Climbing Los Angeles Center
03:03AM 33.6647 -117.2892 92° East 438 504 21,800 1,140 Climbing Los Angeles Center
03:04AM 33.6597 -117.1494 92° East 449 517 22,800 960 Climbing Los Angeles Center
03:05AM 33.6547 -116.9897 77° East 461 531 23,800 960 Climbing Los Angeles Center
03:06AM 33.6869 -116.8253 74° East 453 521 24,800 960 Climbing Los Angeles Center
03:07AM 33.7233 -116.6706 76° East 461 531 25,800 900 Climbing Los Angeles Center
03:08AM 33.7572 -116.5108 77° East 476 548 26,600 840 Climbing Los Angeles Center
03:09AM 33.7889 -116.3511 77° East 482 555 27,500 840 Climbing Los Angeles Center
03:10AM 33.8206 -116.1861 76° East 494 568 28,300 900 Climbing Los Angeles Center
03:11AM 33.8539 -116.0211 77° East 499 574 29,300 900 Climbing Los Angeles Center
03:12AM 33.8850 -115.8533 76° East 499 574 30,100 840 Climbing Los Angeles Center
03:13AM 33.9178 -115.6931 76° East 504 580 31,000 900 Climbing Los Angeles Center
03:14AM 33.9506 -115.5303 78° East 504 580 31,900 960 Climbing Los Angeles Center
03:15AM 33.9789 -115.3697 76° East 499 574 33,000 960 Climbing Los Angeles Center
03:16AM 34.0114 -115.2092 78° East 494 568 33,900 900 Climbing Los Angeles Center
03:17AM 34.0392 -115.0508 77° East 484 557 34,800 480 Climbing Los Angeles Center
03:18AM 34.0692 -114.8950 76° East 479 551 34,900  Climbing Los Angeles Center
03:19AM 34.1008 -114.7389 79° East 474 545 34,900  Level Los Angeles Center
03:20AM 34.1281 -114.5753 79° East 474 545 34,900  Level Los Angeles Center
03:21AM 34.1550 -114.4142 77° East 474 545 34,900  Level Los Angeles Center
03:23AM 34.2111 -114.1089 78° East 490 564 35,000  Climbing Albuquerque Center
03:24AM 34.2389 -113.9481 76° East 495 570 35,000  Level Albuquerque Center
03:25AM 34.2725 -113.7872 79° East 495 570 35,000  Level Albuquerque Center
03:26AM 34.2981 -113.6233 78° East 495 570 35,000  Level Albuquerque Center
03:27AM 34.3272 -113.4622 78° East 495 570 35,000  Level Albuquerque Center
03:28AM 34.3561 -113.2983 80° East 488 562 35,000  Level Albuquerque Center
03:29AM 34.3781 -113.1539 77° East 494 568 35,000  Level Albuquerque Center
03:30AM 34.4086 -112.9900 78° East 494 568 35,000  Level Albuquerque Center
03:31AM 34.4372 -112.8256 78° East 499 574 35,000  Level Albuquerque Center
03:32AM 34.4683 -112.6414 78° East 499 574 35,000  Level Albuquerque Center
03:33AM 34.4964 -112.4767 78° East 499 574 35,000  Level Albuquerque Center
03:34AM 34.5244 -112.3097 79° East 504 580 35,000  Level Albuquerque Center
03:35AM 34.5497 -112.1447 78° East 504 580 35,000  Level Albuquerque Center
03:36AM 34.5794 -111.9775 80° East 504 580 35,000  Level Albuquerque Center
03:37AM 34.6044 -111.8097 78° East 504 580 35,000  Level Albuquerque Center
03:38AM 34.6336 -111.6422 80° East 504 580 35,000  Level Albuquerque Center
03:39AM 34.6583 -111.4744 78° East 504 580 35,000  Level Albuquerque Center
03:40AM 34.6842 -111.3267 79° East 504 580 35,000  Level Albuquerque Center
03:41AM 34.7103 -111.1586 79° East 504 580 35,000  Level Albuquerque Center
03:42AM 34.7364 -110.9931 79° East 504 580 35,000  Level Albuquerque Center
03:43AM 34.7669 -110.8072 82° East 504 580 35,000  Level Albuquerque Center
03:44AM 34.7867 -110.6286 79° East 522 601 35,000  Level Albuquerque Center
03:45AM 34.8114 -110.4778 80° East 517 595 35,000  Level Albuquerque Center
03:46AM 34.8392 -110.2917 79° East 511 588 35,000  Level Albuquerque Center
03:47AM 34.8661 -110.1203 81° East 506 582 35,000  Level Albuquerque Center
03:48AM 34.8886 -109.9517 80° East 501 577 35,000  Level Albuquerque Center
03:49AM 34.9108 -109.7953 80° East 511 588 35,000  Level Albuquerque Center
03:50AM 34.9372 -109.6086 80° East 511 588 35,000  Level Albuquerque Center
03:51AM 34.9614 -109.4394 81° East 511 588 35,000  Level Albuquerque Center
03:52AM 34.9806 -109.2853 79° East 511 588 35,000  Level Albuquerque Center
03:53AM 35.0083 -109.1108 81° East 511 588 35,000  Level Albuquerque Center
03:54AM 35.0317 -108.9236 80° East 511 588 35,000  Level Albuquerque Center
03:55AM 35.0525 -108.7744 82° East 506 582 35,000  Level Albuquerque Center
03:56AM 35.0731 -108.6022 81° East 506 582 35,000  Level Albuquerque Center
03:57AM 35.0956 -108.4300 80° East 506 582 35,000  Level Albuquerque Center
03:58AM 35.1242 -108.2372 81° East 512 589 35,000  Level Albuquerque Center
03:59AM 35.1464 -108.0647 81° East 519 597 35,000  Level Albuquerque Center
04:00AM 35.1658 -107.9075 81° East 519 597 35,000  Level Albuquerque Center
04:01AM 35.1897 -107.7144 81° East 519 597 35,000  Level Albuquerque Center
04:02AM 35.2128 -107.5442 82° East 519 597 35,000  Level Albuquerque Center
04:03AM 35.2297 -107.3892 81° East 519 597 35,000  Level Albuquerque Center
04:04AM 35.2525 -107.2136 82° East 519 597 35,000  Level Albuquerque Center
04:05AM 35.2731 -107.0228 81° East 519 597 35,000  Level Albuquerque Center
04:06AM 35.2956 -106.8472 82° East 519 597 35,000  Level Albuquerque Center
04:07AM 35.3133 -106.6917 82° East 519 597 35,000  Level Albuquerque Center
04:08AM 35.3333 -106.5158 82° East 524 603 35,000  Level Albuquerque Center
04:09AM 35.3547 -106.3222 82° East 519 597 35,000  Level Albuquerque Center
04:10AM 35.3739 -106.1436 81° East 526 605 35,000  Level Albuquerque Center
04:11AM 35.3950 -105.9725 83° East 520 598 35,000  Level Albuquerque Center
04:12AM 35.4136 -105.7886 83° East 531 611 35,000  Level Albuquerque Center
04:13AM 35.4319 -105.6125 82° East 531 611 35,000  Level Albuquerque Center
04:14AM 35.4503 -105.4439 80° East 513 590 35,000 -60 Level Albuquerque Center
04:15AM 35.4728 -105.2850 81° East 506 582 34,900  Descending Albuquerque Center
04:16AM 35.4983 -105.0956 73° East 512 589 35,000  Climbing Albuquerque Center
04:17AM 35.5389 -104.9286 73° East 507 583 35,000  Level Albuquerque Center
04:18AM 35.5756 -104.7767 73° East 513 590 35,000  Level Albuquerque Center
04:19AM 35.6175 -104.6042 72° East 523 602 35,000  Level Albuquerque Center
04:20AM 35.6614 -104.4339 73° East 523 602 35,000  Level Albuquerque Center
04:21AM 35.7031 -104.2611 73° East 523 602 35,000 -60 Level Albuquerque Center
04:22AM 35.7500 -104.0697 73° East 523 602 34,900  Descending Albuquerque Center
04:23AM 35.7933 -103.8964 73° East 528 608 35,000  Climbing Albuquerque Center
04:24AM 35.8361 -103.7231 73° East 528 608 35,000  Level Albuquerque Center
04:25AM 35.8786 -103.5492 77° East 523 602 35,000  Level Albuquerque Center
04:26AM 35.9106 -103.3733 78° East 520 598 35,000  Level Albuquerque Center
04:27AM 35.9419 -103.1947 78° East 515 593 35,000  Level Albuquerque Center
04:28AM 35.9733 -103.0186 79° East 520 598 35,000  Level Albuquerque Center
04:29AM 35.9989 -102.8606 78° East 520 598 35,000  Level Albuquerque Center
04:30AM 36.0294 -102.6842 78° East 520 598 35,000  Level Albuquerque Center
04:31AM 36.0600 -102.5075 78° East 520 598 35,000  Level Albuquerque Center
04:32AM 36.0903 -102.3283 79° East 525 604 35,000  Level Albuquerque Center
04:33AM 36.1181 -102.1464 78° East 531 611 35,000  Level Albuquerque Center
04:34AM 36.1478 -101.9697 79° East 526 605 35,000  Level Albuquerque Center
04:35AM 36.1769 -101.7900 79° East 526 605 35,000  Level Albuquerque Center
04:37AM 36.2428 -101.3647 79° East 528 608 35,000  Level Kansas City Center
04:38AM 36.2719 -101.1842 79° East 528 608 35,000  Level Kansas City Center
04:39AM 36.3006 -101.0064 80° East 534 615 35,000  Level Kansas City Center
04:40AM 36.3269 -100.8253 80° East 529 609 35,000  Level Kansas City Center
04:41AM 36.3531 -100.6444 80° East 529 609 35,000  Level Kansas City Center
04:42AM 36.3792 -100.4631 80° East 534 615 35,000  Level Kansas City Center
04:43AM 36.4044 -100.2844 79° East 534 615 35,000  Level Kansas City Center
04:44AM 36.4322 -100.1006 80° East 534 615 35,000  Level Kansas City Center
04:45AM 36.4572 -99.9192 80° East 534 615 35,000  Level Kansas City Center
04:46AM 36.4819 -99.7425 80° East 534 615 35,000  Level Kansas City Center
04:47AM 36.5056 -99.5814 80° East 534 615 35,000  Level Kansas City Center
04:48AM 36.5322 -99.3942 80° East 540 621 35,000  Level Kansas City Center
04:49AM 36.5581 -99.2150 81° East 540 621 35,000  Level Kansas City Center
04:50AM 36.5817 -99.0353 81° East 540 621 35,000  Level Kansas City Center
04:51AM 36.6053 -98.8531 80° East 540 621 35,000  Level Kansas City Center
04:52AM 36.6306 -98.6731 81° East 535 616 35,000  Level Kansas City Center
04:53AM 36.6533 -98.4931 80° East 535 616 35,000  Level Kansas City Center
04:54AM 36.6781 -98.3106 81° East 535 616 35,000  Level Kansas City Center
04:55AM 36.7003 -98.1328 83° East 535 616 35,000  Level Kansas City Center
04:56AM 36.7181 -97.9550 81° East 520 598 35,000  Level Kansas City Center
04:57AM 36.7419 -97.7744 81° East 520 598 35,000  Level Kansas City Center
04:58AM 36.7633 -97.5992 79° East 520 598 35,000  Level Kansas City Center
04:59AM 36.7933 -97.4006 82° East 520 598 35,000  Level Kansas City Center
05:00AM 36.8119 -97.2275 83° East 520 598 35,000  Level Kansas City Center
05:01AM 36.8306 -97.0492 82° East 515 593 35,000  Level Kansas City Center
05:02AM 36.8508 -96.8733 81° East 515 593 35,000  Level Kansas City Center
05:03AM 36.8731 -96.6947 81° East 515 593 35,000  Level Kansas City Center
05:04AM 36.8950 -96.5161 82° East 515 593 35,000  Level Kansas City Center
05:05AM 36.9144 -96.3400 82° East 520 598 35,000  Level Kansas City Center
05:06AM 36.9314 -96.1819 82° East 520 598 35,000  Level Kansas City Center
05:07AM 36.9525 -96.0031 82° East 520 598 35,000  Level Kansas City Center
05:08AM 36.9714 -95.8267 83° East 520 598 35,000  Level Kansas City Center
05:09AM 36.9900 -95.6475 83° East 520 598 35,000  Level Kansas City Center
05:10AM 37.0081 -95.4736 83° East 515 593 35,000  Level Kansas City Center
05:11AM 37.0261 -95.2994 82° East 515 593 35,000  Level Kansas City Center
05:12AM 37.0458 -95.1228 84° East 510 587 35,000  Level Kansas City Center
05:13AM 37.0614 -94.9486 83° East 510 587 35,000  Level Kansas City Center
05:14AM 37.0786 -94.7717 82° East 505 581 35,000  Level Kansas City Center
05:15AM 37.0975 -94.5944 83° East 505 581 35,000  Level Kansas City Center
05:16AM 37.1142 -94.4200 83° East 500 575 35,000  Level Kansas City Center
05:17AM 37.1306 -94.2456 84° East 500 575 35,000  Level Kansas City Center
05:18AM 37.1467 -94.0578 83° East 500 575 35,000  Level Kansas City Center
05:19AM 37.1628 -93.8831 84° East 500 575 35,000  Level Kansas City Center
05:20AM 37.1783 -93.7083 84° East 505 581 35,000  Level Kansas City Center
05:21AM 37.1917 -93.5336 84° East 505 581 35,000  Level Kansas City Center
05:22AM 37.2067 -93.3561 84° East 498 573 35,000  Level Kansas City Center
05:23AM 37.2197 -93.2019 83° East 498 573 35,000  Level Kansas City Center
05:24AM 37.2364 -93.0269 85° East 498 573 35,000  Level Kansas City Center
05:25AM 37.2489 -92.8519 84° East 503 579 35,000  Level Kansas City Center
05:26AM 37.2647 -92.6558 84° East 503 579 35,000  Level Kansas City Center
05:27AM 37.2783 -92.4781 85° East 509 586 35,000  Level Kansas City Center
05:28AM 37.2919 -92.2975 85° East 509 586 35,000  Level Kansas City Center
05:29AM 37.3050 -92.1169 85° East 509 586 35,000  Level Kansas City Center
05:30AM 37.3181 -91.9389 84° East 509 586 35,000  Level Kansas City Center
05:31AM 37.3328 -91.7581 85° East 514 592 35,000  Level Kansas City Center
05:32AM 37.3453 -91.5800 85° East 514 592 35,000  Level Kansas City Center
05:33AM 37.3575 -91.4044 86° East 514 592 35,000  Level Kansas City Center
05:34AM 37.3675 -91.2292 85° East 514 592 35,000  Level Kansas City Center
05:35AM 37.3811 -91.0481 85° East 514 592 35,000  Level Kansas City Center
05:36AM 37.3928 -90.8750 85° East 509 586 35,000  Level Kansas City Center
05:37AM 37.4039 -90.7019 85° East 503 579 35,000  Level Kansas City Center
05:38AM 37.4150 -90.5261 85° East 498 573 35,000  Level Kansas City Center
05:39AM 37.4264 -90.3711 85° East 498 573 35,000  Level Kansas City Center
05:40AM 37.4383 -90.1822 87° East 498 573 35,000  Level Kansas City Center
05:41AM 37.4464 -90.0039 86° East 498 573 35,000  Level Kansas City Center
05:42AM 37.4564 -89.8306 86° East 498 573 35,000  Level Kansas City Center
05:43AM 37.4708 -89.5494 86° East 503 579 35,000  Level Memphis Center
05:44AM 37.4800 -89.3742 85° East 498 573 35,000  Level Memphis Center
05:45AM 37.4911 -89.2042 87° East 498 573 35,000  Level Memphis Center
05:46AM 37.4978 -89.0289 87° East 498 573 35,000  Level Memphis Center
05:48AM 37.5094 -88.7361 86° East 494 568 35,000  Level Indianapolis Center
05:49AM 37.5189 -88.5667 87° East 494 568 35,000  Level Indianapolis Center
05:50AM 37.5261 -88.3969 87° East 494 568 35,000  Level Indianapolis Center
05:51AM 37.5331 -88.2217 86° East 494 568 35,000  Level Indianapolis Center
05:52AM 37.5414 -88.0650 87° East 494 568 35,000  Level Indianapolis Center
05:53AM 37.5478 -87.8925 87° East 501 577 35,000  Level Indianapolis Center
05:54AM 37.5542 -87.7175 87° East 495 570 35,000  Level Indianapolis Center
05:55AM 37.5603 -87.5422 88° East 495 570 35,000  Level Indianapolis Center
05:56AM 37.5658 -87.3694 88° East 501 577 35,000  Level Indianapolis Center
05:57AM 37.5722 -87.1733 88° East 501 577 35,000  Level Indianapolis Center
05:58AM 37.5775 -86.9981 89° East 501 577 35,000  Level Indianapolis Center
05:59AM 37.5803 -86.8225 87° East 496 571 35,000 -60 Level Indianapolis Center
06:00AM 37.5872 -86.6472 87° East 496 571 34,900  Descending Indianapolis Center
06:01AM 37.5939 -86.4692 88° East 496 571 35,000  Climbing Indianapolis Center
06:02AM 37.5981 -86.2883 88° East 496 571 35,000  Level Indianapolis Center
06:03AM 37.6022 -86.1103 89° East 502 578 35,000  Level Indianapolis Center
06:04AM 37.6039 -85.9322 89° East 502 578 35,000  Level Indianapolis Center
06:05AM 37.6072 -85.7539 88° East 502 578 35,000  Level Indianapolis Center
06:06AM 37.6125 -85.5758 88° East 502 578 35,000  Level Indianapolis Center
06:07AM 37.6175 -85.3950 89° East 502 578 35,000  Level Indianapolis Center
06:08AM 37.6203 -85.2194 88° East 502 578 35,000  Level Indianapolis Center
06:09AM 37.6247 -85.0411 85° East 502 578 35,000  Level Indianapolis Center
06:10AM 37.6372 -84.8631 82° East 502 578 35,000  Level Indianapolis Center
06:11AM 37.6578 -84.6850 81° East 507 583 35,000  Level Indianapolis Center
06:12AM 37.6781 -84.5281 81° East 507 583 35,000  Level Indianapolis Center
06:13AM 37.7003 -84.3522 82° East 507 583 35,000  Level Indianapolis Center
06:14AM 37.7200 -84.1742 79° East 508 585 35,000  Level Indianapolis Center
06:15AM 37.7458 -84.0008 78° East 508 585 35,000  Level Indianapolis Center
06:16AM 37.7756 -83.8250 76° East 503 579 35,000  Level Indianapolis Center
06:17AM 37.8092 -83.6489 77° East 510 587 35,000  Level Indianapolis Center
06:18AM 37.8406 -83.4756 76° East 505 581 35,000 -60 Level Indianapolis Center
06:19AM 37.8736 -83.3019 77° East 505 581 34,900  Descending Indianapolis Center
06:20AM 37.9044 -83.1306 77° East 505 581 35,000  Climbing Indianapolis Center
06:21AM 37.9369 -82.9514 73° East 505 581 35,000  Level Indianapolis Center
06:22AM 37.9778 -82.7825 68° East 510 587 35,000  Level Indianapolis Center
06:23AM 38.0347 -82.5997 67° East 505 581 35,000  Level Indianapolis Center
06:24AM 38.0897 -82.4328 70° East 505 581 35,000  Level Indianapolis Center
06:25AM 38.1258 -82.3056 69° East 500 575 35,000  Level Indianapolis Center
06:26AM 38.1861 -82.1064 69° East 495 570 35,000  Level Indianapolis Center
06:27AM 38.2361 -81.9414 69° East 495 570 35,000  Level Indianapolis Center
06:28AM 38.2858 -81.7736 69° East 495 570 35,000  Level Indianapolis Center
06:29AM 38.3356 -81.6083 70° East 495 570 35,000  Level Indianapolis Center
06:30AM 38.3847 -81.4400 68° East 495 570 35,000  Level Indianapolis Center
06:31AM 38.4319 -81.2875 69° East 501 577 35,000  Level Indianapolis Center
06:33AM 38.5503 -80.8961 69° East 496 571 35,000  Level Washington Center
06:34AM 38.5992 -80.7294 69° East 502 578 35,000  Level Washington Center
06:35AM 38.6478 -80.5656 69° East 496 571 35,000  Level Washington Center
06:36AM 38.7011 -80.3828 70° East 496 571 35,000  Level Washington Center
06:37AM 38.7494 -80.2131 71° East 496 571 35,000  Level Washington Center
06:38AM 38.7956 -80.0453 69° East 496 571 35,000  Level Washington Center
06:39AM 38.8431 -79.8831 70° East 496 571 35,000  Level Washington Center
06:40AM 38.8906 -79.7150 73° East 496 571 35,000  Level Washington Center
06:41AM 38.9322 -79.5358 70° East 501 577 35,000  Level Washington Center
06:42AM 38.9792 -79.3728 70° East 501 577 35,000  Level Washington Center
06:43AM 39.0258 -79.2069 71° East 496 571 35,000  Level Washington Center
06:44AM 39.0706 -79.0378 70° East 496 571 35,000  Level Washington Center
06:45AM 39.1169 -78.8689 70° East 496 571 35,000  Level Washington Center
06:46AM 39.1628 -78.7050 71° East 496 571 35,000  Level Washington Center
06:47AM 39.2089 -78.5356 71° East 496 571 35,000  Level Washington Center
06:48AM 39.2525 -78.3683 71° East 496 571 35,000  Level Washington Center
06:49AM 39.2978 -78.1983 71° East 496 571 35,000  Level Washington Center
06:52AM 39.4244 -77.7300 72° East 498 573 35,000  Level New York Center
06:53AM 39.4678 -77.5567 72° East 498 573 35,000  Level New York Center
06:54AM 39.5108 -77.3858 72° East 493 567 35,000  Level New York Center
06:55AM 39.5539 -77.2147 71° East 493 567 35,000  Level New York Center
06:56AM 39.5986 -77.0408 71° East 493 567 35,000  Level New York Center
06:57AM 39.6431 -76.8694 72° East 493 567 35,000  Level New York Center
06:58AM 39.6853 -76.6978 73° East 493 567 35,000  Level New York Center
06:59AM 39.7272 -76.5231 71° East 493 567 35,000  Level New York Center
07:00AM 39.7731 -76.3514 75° East 493 567 35,000  Level New York Center
07:01AM 39.8133 -76.1544 73° East 499 574 35,000  Level New York Center
07:02AM 39.8547 -75.9792 70° East 504 580 35,000 -60 Level New York Center
07:03AM 39.8992 -75.8200 73° East 512 589 34,900 -60 Descending New York Center
07:04AM 39.9419 -75.6417 73° East 512 589 34,900  Level New York Center
07:05AM 39.9825 -75.4658 74° East 507 583 35,000  Climbing New York Center
07:06AM 40.0231 -75.2842 73° East 507 583 34,900  Descending New York Center
07:07AM 40.0653 -75.1050 73° East 507 583 35,000  Climbing New York Center
07:08AM 40.1069 -74.9258 74° East 507 583 35,000  Level New York Center
07:09AM 40.1492 -74.7303 63° Northeast 500 575 35,000  Level New York Center
07:10AM 40.2061 -74.5867 53° Northeast 500 575 35,000 -60 Level New York Center
07:11AM 40.2900 -74.4389 53° Northeast 494 568 34,900 -60 Descending New York Center
07:12AM 40.3714 -74.2961 53° Northeast 494 568 34,900 -60 Level New York Center
07:13AM 40.4547 -74.1531 53° Northeast 494 568 34,800 -1,020 Descending New York Center
07:14AM 40.5381 -74.0097 53° Northeast 494 568 32,900 -2,220 Descending New York Center
07:17AM 40.7350 -73.6644 55° Northeast 497 572 27,300 -2,340 Descending Boston Center
07:18AM 40.8114 -73.5206 51° Northeast 497 572 25,100 -1,740 Descending Boston Center
07:19AM 40.8939 -73.3872 50° Northeast 485 558 23,900 -900 Descending Boston Center
07:20AM 40.9761 -73.2594 48° Northeast 466 536 23,300 -1,440 Descending Boston Center
07:21AM 41.0581 -73.1392 48° Northeast 447 514 21,100 -1,200 Descending Boston Center
07:22AM 41.1403 -73.0189 51° Northeast 441 507 21,000 -60 Descending Boston Center
07:23AM 41.2158 -72.8953 60° Northeast 435 501 21,000 -60 Level Boston Center
07:24AM 41.2850 -72.7356 64° Northeast 443 510 20,900 -60 Descending Boston Center
07:25AM 41.3417 -72.5839 65° Northeast 443 510 20,900  Level Boston Center
07:26AM 41.3958 -72.4319 64° Northeast 449 517 20,900  Level Boston Center
07:27AM 41.4519 -72.2794 63° Northeast 449 517 20,900  Level Boston Center
07:28AM 41.5039 -72.1408 65° Northeast 449 517 21,000 -60 Climbing Boston Center
07:29AM 41.5575 -71.9878 67° East 449 517 20,800 -1,260 Descending Boston Center
07:30AM 41.6108 -71.8153 68° East 449 517 18,500 -1,980 Descending Boston Center
07:31AM 41.6517 -71.6789 69° East 444 511 16,900 -1,740 Descending Boston Center
07:32AM 41.6964 -71.5197 64° Northeast 418 481 15,100 -1,680 Descending Boston Center
07:33AM 41.7372 -71.4053 52° Northeast 398 458 13,600 -1,620 Descending Boston Center
07:34AM 41.8047 -71.2872 41° Northeast 367 422 11,900 -1,440 Descending Boston Center
07:35AM 41.8767 -71.2022 43° Northeast 346 398 10,800 -900 Descending Boston Center
07:36AM 41.9406 -71.1228 44° Northeast 329 379 10,100 -1,140 Descending Boston Center
07:37AM 41.9981 -71.0489 44° Northeast 295 339 8,600 -1,500 Descending Boston Center
07:38AM 42.0553 -70.9750 44° Northeast 284 327 7,200 -1,620 Descending Boston Center
07:39AM 42.1086 -70.9067 40° Northeast 268 308 5,400 -1,560 Descending Boston Center
07:40AM 42.1619 -70.8464 12° North 256 295 4,100 -1,200 Descending Boston Center
07:41AM 42.2161 -70.8311 328° Northwest 219 252 3,100 -660 Descending Boston Center
07:42AM 42.2581 -70.8664 329° Northwest 174 200 2,800 -720 Descending Boston Center
07:43AM 42.3000 -70.9000 304° West 174 200 1,800 -960 Descending Boston TRACON
07:44AM 42.3167 -70.9333 324° Northwest 124 143 1,100 -720 Descending Boston TRACON
07:45AM 42.3500 -70.9667 324° Northwest 123 142 500 -600 Descending Boston TRACON